Jacksonville, FL (32257)

12:56 AM EST on December 20, 2014 (GMT -0500)
Pickwick Park | Change Station
CLOSE
Current Station
Personal Weather Station
Location: Jacksonville, FL
Elevation: 30 ft
Nearby Weather Stations

Elev 30 ft 30.21 °N, 81.62 °W | Updated 25 seconds ago

Mostly Cloudy
Mostly Cloudy
53.2 °F
Feels Like 53.2 °F
N
0.0
Wind Variable Wind from North
Gusts 0.0 mph

Today
High -- | Low -- °F
--% Chance of Precip.
Yesterday
High -- | Low -- °F
Precip. -- in
7:18 AM 5:30 PM
Waning Crescent, 4% visible
Pressure 30.10 in
Visibility 10.0 miles
Clouds Scattered Clouds 7500 ft
Mostly Cloudy 17000 ft
Dew Point 42 °F
Humidity 66%
Rainfall 0.00 in
Snow Depth Not available.
UV 0 out of 12
Pollen 2.60 out of 12
Air Quality Not available.
Flu Activity Not available.
METAR KNIP 200553Z 35004KT 10SM SCT075 BKN170 16/11 A3011 RMK AO2 SLP191 T01560111 10167 20156 56007

More Conditions Fewer Conditions

Pressure 30.10 in
Visibility 10.0 miles
Clouds Scattered Clouds 7500 ft
Mostly Cloudy 17000 ft
Dew Point 42 °F
Humidity 66%
Rainfall 0.00 in
Snow Depth Not available.
UV 0 out of 12
Pollen 2.60 out of 12
Air Quality Not available.
Flu Activity Not available.
METAR KNIP 200553Z 35004KT 10SM SCT075 BKN170 16/11 A3011 RMK AO2 SLP191 T01560111 10167 20156 56007

More Conditions Fewer Conditions

10-Day Weather Forecast

Almanac

Astronomy

Dec. 20, 2014 Rise Set
Actual Time
Civil Twilight
Nautical Twilight
Astronomical Twilight
Moon
Length of Visible Light
Length of Day
Tomorrow will be .
, % of the Moon is Illuminated

Today's Extremes

State Highs State Lows

Community

WunderPhotos

Upload Photos

1,779,141 photos uploaded!

WunderBlogs® & News

Nearby

Air Quality

  Air Quality AQ Index Pollutant
Not available.

Snow Depth

Station Depth Elevation

Earthquake Activity

City Distance Mag. Time & Date
Minimum magnitude displayed is 2.5.

Coastal Water Temperatures

Place Temperature

Nearby Weather Stations